Time;durP1;ratioP1;P1;durP2;ratioP2;P2;SDS_P1;SDS_P2;PMS_P1;PMS_P2;Temp;Humidity;BMP_temperature;BMP_pressure;BME280_temperature;BME280_humidity;BME280_pressure;Samples;Min_cycle;Max_cycle;Signal;HPM_P1;HPM_P2
2021/06/25 00:01:56;;;;;;;12.20;10.13;;;;;;;15.31;100.00;96414.00;5047210;28;20111;-75
2021/06/25 00:04:22;;;;;;;12.23;10.93;;;;;;;15.26;100.00;96422.50;5046297;28;20059;-76
2021/06/25 00:06:48;;;;;;;14.03;11.57;;;;;;;15.31;100.00;96427.25;5042268;28;20394;-75
2021/06/25 00:09:14;;;;;;;11.93;10.63;;;;;;;15.26;100.00;96419.88;5045584;28;20050;-75
2021/06/25 00:11:40;;;;;;;12.40;11.10;;;;;;;15.35;100.00;96425.06;5047510;28;20036;-76
2021/06/25 00:14:08;;;;;;;13.02;11.00;;;;;;;15.29;100.00;96416.00;5045945;28;20025;-75
2021/06/25 00:16:34;;;;;;;14.43;11.00;;;;;;;15.29;100.00;96416.00;5045685;28;20032;-75
2021/06/25 00:19:00;;;;;;;12.90;11.10;;;;;;;15.27;100.00;96425.97;5045340;28;20497;-75
2021/06/25 00:21:26;;;;;;;13.70;10.90;;;;;;;15.35;100.00;96430.34;5029811;28;20028;-75
2021/06/25 00:23:52;;;;;;;11.83;10.10;;;;;;;15.31;100.00;96427.25;5044180;28;20079;-76
2021/06/25 00:26:18;;;;;;;13.70;11.27;;;;;;;15.40;100.00;96435.94;5048043;28;20047;-75
2021/06/25 00:28:43;;;;;;;13.40;11.33;;;;;;;15.36;100.00;96437.28;5028649;28;20029;-75
2021/06/25 00:31:09;;;;;;;17.63;11.55;;;;;;;15.39;100.00;96437.78;5046527;28;20039;-75
2021/06/25 00:33:35;;;;;;;12.50;11.20;;;;;;;15.41;100.00;96433.09;5047427;28;20131;-76
2021/06/25 00:36:01;;;;;;;11.43;10.23;;;;;;;15.47;100.00;96434.19;5047934;28;20064;-75
2021/06/25 00:38:27;;;;;;;11.33;10.13;;;;;;;15.31;100.00;96436.00;5041394;28;20028;-76
2021/06/25 00:40:53;;;;;;;11.52;9.65;;;;;;;15.37;100.00;96433.66;5060211;28;20057;-76
2021/06/25 00:43:19;;;;;;;11.05;9.23;;;;;;;15.42;100.00;96440.03;5046973;28;20025;-75
2021/06/25 00:45:44;;;;;;;13.73;10.07;;;;;;;15.41;100.00;96440.22;5045536;28;20409;-75
2021/06/25 00:48:10;;;;;;;14.77;9.37;;;;;;;15.33;100.00;96434.00;5044930;28;20024;-76
2021/06/25 00:50:37;;;;;;;10.20;9.10;;;;;;;15.39;100.00;96436.91;5028656;28;20024;-77
2021/06/25 00:53:04;;;;;;;10.53;9.13;;;;;;;15.35;100.00;96439.13;5045300;28;20786;-77
2021/06/25 00:55:41;;;;;;;9.93;8.33;;;;;;;15.26;100.00;96442.91;5045296;28;20044;-76
2021/06/25 00:58:14;;;;;;;11.00;8.80;;;;;;;15.22;100.00;96445.06;5043144;28;20036;-75
2021/06/25 01:00:41;;;;;;;8.75;6.75;;;;;;;15.17;100.00;96433.38;5043800;28;20708;-76
2021/06/25 01:03:06;;;;;;;9.70;6.80;;;;;;;15.21;100.00;96430.19;5043260;28;20363;-75
2021/06/25 01:05:33;;;;;;;8.33;7.07;;;;;;;15.18;100.00;96430.53;5045923;28;20039;-75
2021/06/25 01:07:59;;;;;;;7.80;6.40;;;;;;;15.15;100.00;96424.78;5044850;28;20036;-75
2021/06/25 01:10:25;;;;;;;9.60;6.60;;;;;;;15.23;100.00;96436.13;5044099;28;20040;-76
2021/06/25 01:12:51;;;;;;;12.45;6.75;;;;;;;15.11;100.00;96423.50;5045142;28;20049;-75
2021/06/25 01:15:17;;;;;;;9.07;6.95;;;;;;;15.09;100.00;96429.00;5045241;28;20524;-75
2021/06/25 01:17:44;;;;;;;8.73;7.07;;;;;;;15.06;100.00;96421.44;5027516;28;20048;-76
2021/06/25 01:20:16;;;;;;;8.13;6.53;;;;;;;15.09;100.00;96423.72;5020827;28;20407;-75
2021/06/25 01:22:43;;;;;;;9.77;7.82;;;;;;;15.00;100.00;96420.31;5042209;28;20032;-76
2021/06/25 01:25:30;;;;;;;9.57;7.67;;;;;;;14.90;100.00;96411.00;5053008;28;20665;-75
2021/06/25 01:28:08;;;;;;;9.33;7.23;;;;;;;14.98;100.00;96419.66;5045137;28;20029;-75
2021/06/25 01:30:45;;;;;;;9.83;7.10;;;;;;;14.95;100.00;96419.22;5044474;28;20116;-75
2021/06/25 01:33:13;;;;;;;8.63;5.63;;;;;;;14.82;100.00;96418.03;5038709;28;20479;-75
2021/06/25 01:35:39;;;;;;;8.10;6.10;;;;;;;14.91;100.00;96423.22;5045418;28;20541;-75
2021/06/25 01:38:06;;;;;;;8.43;6.17;;;;;;;14.86;100.00;96421.13;5043902;28;20029;-76
2021/06/25 01:40:32;;;;;;;9.83;6.70;;;;;;;14.88;100.00;96419.13;5044153;28;20013;-75
2021/06/25 01:43:02;;;;;;;8.57;7.43;;;;;;;14.91;100.00;96417.94;5044467;28;20037;-75
2021/06/25 01:45:30;;;;;;;8.48;7.35;;;;;;;15.01;100.00;96418.50;5044862;28;20091;-75
2021/06/25 01:47:57;;;;;;;7.20;5.07;;;;;;;14.88;100.00;96419.13;5044158;28;20028;-75
2021/06/25 01:50:36;;;;;;;5.77;4.20;;;;;;;14.85;100.00;96422.13;5045666;28;20029;-75
2021/06/25 01:53:03;;;;;;;8.17;4.23;;;;;;;14.94;100.00;96413.09;5044245;28;20040;-76
2021/06/25 01:55:39;;;;;;;6.40;3.57;;;;;;;14.79;100.00;96417.56;5045436;28;20100;-75
2021/06/25 01:58:20;;;;;;;5.30;3.30;;;;;;;14.66;100.00;96412.06;5044167;28;20025;-75
2021/06/25 02:01:11;;;;;;;6.33;3.37;;;;;;;14.60;100.00;96413.63;5045001;28;20086;-75
2021/06/25 02:03:42;;;;;;;6.27;3.20;;;;;;;14.54;100.00;96417.78;5043344;28;20124;-75
2021/06/25 02:06:10;;;;;;;5.93;3.20;;;;;;;14.52;100.00;96411.03;5039847;28;20075;-75
2021/06/25 02:08:38;;;;;;;6.90;2.60;;;;;;;14.48;100.00;96412.34;5047928;28;20229;-76
2021/06/25 02:11:11;;;;;;;4.93;2.70;;;;;;;14.43;100.00;96412.91;5047307;28;20021;-76
2021/06/25 02:13:37;;;;;;;5.53;3.27;;;;;;;14.39;100.00;96409.78;5043846;28;20033;-76
2021/06/25 02:16:03;;;;;;;4.93;3.30;;;;;;;14.36;100.00;96406.69;5052692;28;20449;-75
2021/06/25 02:18:29;;;;;;;5.03;3.10;;;;;;;14.42;100.00;96407.78;5049927;28;20032;-75
2021/06/25 02:20:55;;;;;;;4.97;2.60;;;;;;;14.38;100.00;96400.22;5050927;28;20025;-75
2021/06/25 02:23:20;;;;;;;5.33;3.07;;;;;;;14.35;100.00;96407.66;5034535;28;20453;-75
2021/06/25 02:25:46;;;;;;;4.67;2.90;;;;;;;14.34;100.00;96396.28;5052090;28;20041;-75
2021/06/25 02:28:12;;;;;;;5.10;2.87;;;;;;;14.28;100.00;96401.44;5046578;28;20044;-76
2021/06/25 02:30:38;;;;;;;5.57;2.80;;;;;;;14.21;100.00;96401.34;5048404;28;20072;-75
2021/06/25 02:33:04;;;;;;;4.43;2.80;;;;;;;14.23;100.00;96394.06;5049059;28;20357;-75
2021/06/25 02:35:30;;;;;;;4.63;2.80;;;;;;;14.24;100.00;96395.69;5035477;28;20079;-75
2021/06/25 02:37:56;;;;;;;4.60;2.77;;;;;;;14.27;100.00;96400.63;5050126;28;20040;-75
2021/06/25 02:40:23;;;;;;;7.23;2.87;;;;;;;14.20;100.00;96399.69;5050135;28;20482;-75
2021/06/25 02:42:49;;;;;;;5.53;3.27;;;;;;;14.26;100.00;96400.81;5050102;28;20047;-75
2021/06/25 02:45:15;;;;;;;5.87;2.80;;;;;;;14.14;100.00;96398.56;5043590;28;20486;-75
2021/06/25 02:47:42;;;;;;;4.47;2.87;;;;;;;14.26;100.00;96401.63;5049680;28;20029;-75
2021/06/25 02:50:08;;;;;;;4.77;2.67;;;;;;;14.19;100.00;96403.34;5049987;28;20028;-75
2021/06/25 02:52:37;;;;;;;4.60;2.80;;;;;;;14.20;100.00;96391.75;5050948;28;20573;-75
2021/06/25 02:55:03;;;;;;;5.03;3.07;;;;;;;14.22;100.00;96400.34;5051759;28;20029;-75
2021/06/25 02:57:29;;;;;;;5.83;3.13;;;;;;;14.22;100.00;96396.88;5051255;28;20072;-75
2021/06/25 02:59:55;;;;;;;3.70;2.53;;;;;;;14.22;100.00;96395.06;5051054;28;20056;-75
2021/06/25 03:02:20;;;;;;;4.80;3.00;;;;;;;14.18;100.00;96395.59;5047627;28;20061;-75
2021/06/25 03:04:46;;;;;;;5.73;2.67;;;;;;;14.16;100.00;96393.13;5045346;28;20029;-74
2021/06/25 03:07:12;;;;;;;5.40;2.93;;;;;;;14.24;100.00;96390.41;5046263;28;20056;-75
2021/06/25 03:09:38;;;;;;;4.20;2.83;;;;;;;14.18;100.00;96399.03;5046899;28;20028;-75
2021/06/25 03:12:04;;;;;;;5.97;3.07;;;;;;;14.10;100.00;96399.13;5045747;28;20037;-75
2021/06/25 03:14:30;;;;;;;6.33;2.80;;;;;;;14.08;100.00;96395.81;5048101;28;20096;-75
2021/06/25 03:16:56;;;;;;;5.37;3.53;;;;;;;14.13;100.00;96393.47;5047320;28;20151;-75
2021/06/25 03:19:21;;;;;;;6.60;3.67;;;;;;;14.14;100.00;96395.13;5047482;28;20474;-74
2021/06/25 03:21:47;;;;;;;6.23;3.50;;;;;;;14.19;100.00;96397.25;5047291;28;20911;-75
2021/06/25 03:24:13;;;;;;;4.53;3.00;;;;;;;14.09;100.00;96392.19;5046148;28;20541;-75
2021/06/25 03:26:40;;;;;;;5.53;3.30;;;;;;;14.09;100.00;96392.19;5046484;28;20102;-75
2021/06/25 03:29:05;;;;;;;6.60;3.27;;;;;;;14.15;100.00;96399.41;5046596;28;20108;-75
2021/06/25 03:31:31;;;;;;;5.50;3.83;;;;;;;14.15;100.00;96396.75;5029931;28;20174;-75
2021/06/25 03:33:57;;;;;;;5.10;3.57;;;;;;;14.01;100.00;96390.41;5046465;28;20032;-75
2021/06/25 03:36:23;;;;;;;6.20;3.80;;;;;;;14.08;100.00;96390.53;5047933;28;20107;-75
2021/06/25 03:38:48;;;;;;;6.73;3.83;;;;;;;14.08;100.00;96391.38;5046288;28;20036;-75
2021/06/25 03:41:14;;;;;;;10.50;4.20;;;;;;;14.11;100.00;96390.19;5045827;28;20032;-76
2021/06/25 03:43:40;;;;;;;6.73;4.53;;;;;;;14.08;100.00;96393.19;5046164;28;20109;-75
2021/06/25 03:46:06;;;;;;;6.47;4.20;;;;;;;14.14;100.00;96401.22;5046152;28;20040;-75
2021/06/25 03:48:31;;;;;;;6.03;4.00;;;;;;;14.09;100.00;96394.84;5042492;28;20474;-75
2021/06/25 03:50:57;;;;;;;6.47;4.70;;;;;;;14.10;100.00;96391.19;5045805;28;20482;-76
2021/06/25 03:53:23;;;;;;;8.30;4.60;;;;;;;14.03;100.00;96393.72;5046547;28;20686;-74
2021/06/25 03:58:32;;;;;;;7.87;5.07;;;;;;;13.94;100.00;96396.59;5046680;28;20061;-76
2021/06/25 04:00:58;;;;;;;7.67;4.93;;;;;;;13.99;100.00;96391.63;5047351;28;20023;-74
2021/06/25 04:03:24;;;;;;;7.70;4.93;;;;;;;13.99;100.00;96395.06;5046239;28;20056;-75
2021/06/25 04:05:50;;;;;;;9.43;5.20;;;;;;;14.02;100.00;96401.84;5046387;28;20024;-75
2021/06/25 04:08:16;;;;;;;7.73;4.90;;;;;;;13.99;100.00;96402.19;5045394;28;20036;-75
2021/06/25 04:10:42;;;;;;;6.00;4.57;;;;;;;13.98;100.00;96403.16;5045028;28;20110;-75
2021/06/25 04:13:09;;;;;;;6.83;5.17;;;;;;;14.06;100.00;96405.78;5046812;28;20032;-75
2021/06/25 04:15:35;;;;;;;5.63;4.20;;;;;;;14.05;100.00;96401.47;5045552;28;20539;-75
2021/06/25 04:18:00;;;;;;;7.97;4.10;;;;;;;14.09;100.00;96398.31;5044400;28;20028;-75
2021/06/25 04:20:26;;;;;;;5.50;4.07;;;;;;;14.01;100.00;96411.56;5045376;28;20021;-75
2021/06/25 04:22:53;;;;;;;5.27;3.53;;;;;;;13.96;100.00;96403.34;5028708;28;20040;-75
2021/06/25 04:25:19;;;;;;;7.80;3.60;;;;;;;14.00;100.00;96407.28;5045740;28;20013;-75
2021/06/25 04:27:45;;;;;;;5.93;3.73;;;;;;;13.98;100.00;96403.16;5045805;28;20036;-75
2021/06/25 04:30:12;;;;;;;5.30;3.70;;;;;;;13.93;100.00;96416.94;5038821;28;20033;-75
2021/06/25 04:32:39;;;;;;;4.50;3.07;;;;;;;13.87;100.00;96410.50;5041497;28;20028;-75
2021/06/25 04:35:07;;;;;;;6.60;3.33;;;;;;;13.96;100.00;96408.66;5044620;28;20048;-75
2021/06/25 04:37:32;;;;;;;4.47;3.03;;;;;;;14.02;100.00;96412.41;5027494;28;20044;-75
2021/06/25 04:39:58;;;;;;;6.37;3.73;;;;;;;14.07;100.00;96410.03;5044407;28;20550;-75
2021/06/25 04:42:24;;;;;;;6.43;3.50;;;;;;;14.07;100.00;96410.88;5044717;28;20056;-75
2021/06/25 04:44:49;;;;;;;6.73;3.57;;;;;;;13.97;100.00;96406.81;5044712;28;20107;-74
2021/06/25 04:47:15;;;;;;;8.97;4.23;;;;;;;13.95;100.00;96407.00;5042953;28;20055;-75
2021/06/25 04:49:41;;;;;;;6.50;3.63;;;;;;;14.10;100.00;96413.16;5045710;28;20033;-74
2021/06/25 04:52:07;;;;;;;5.70;3.90;;;;;;;14.11;100.00;96406.03;5044589;28;20666;-75
2021/06/25 04:54:33;;;;;;;6.57;3.40;;;;;;;14.12;100.00;96408.53;5044294;28;20021;-75
2021/06/25 04:57:00;;;;;;;5.03;3.37;;;;;;;14.08;100.00;96401.97;5044227;28;20109;-75
2021/06/25 04:59:27;;;;;;;4.97;3.30;;;;;;;14.04;100.00;96405.94;5045866;28;20600;-75
2021/06/25 05:01:53;;;;;;;5.53;3.40;;;;;;;14.15;100.00;96413.47;5045737;28;20021;-75
2021/06/25 05:04:19;;;;;;;4.70;3.37;;;;;;;14.34;100.00;96406.84;5045886;28;20087;-75
2021/06/25 05:06:47;;;;;;;5.93;3.13;;;;;;;14.40;100.00;96407.97;5048127;28;20024;-74
2021/06/25 05:09:13;;;;;;;5.10;3.37;;;;;;;14.49;100.00;96414.03;5043264;28;20136;-75
2021/06/25 05:11:40;;;;;;;6.10;3.17;;;;;;;14.51;100.00;96415.50;5033921;28;20041;-74
2021/06/25 05:14:07;;;;;;;4.13;2.87;;;;;;;14.49;100.00;96414.84;5037986;28;20032;-78
2021/06/25 05:16:32;;;;;;;5.03;3.57;;;;;;;14.41;100.00;96409.59;5045133;28;20116;-76
2021/06/25 05:18:58;;;;;;;4.93;3.37;;;;;;;14.41;100.00;96404.31;5042348;28;20116;-76
2021/06/25 05:21:24;;;;;;;4.53;3.07;;;;;;;14.42;100.00;96402.47;5044250;28;20029;-74
2021/06/25 05:23:50;;;;;;;4.30;2.90;;;;;;;14.31;100.00;96404.56;5042359;28;20033;-75
2021/06/25 05:26:16;;;;;;;5.40;3.00;;;;;;;14.28;100.00;96406.75;5042622;28;20037;-76
2021/06/25 05:28:42;;;;;;;6.10;3.23;;;;;;;14.41;100.00;96406.97;5044399;28;20036;-75
2021/06/25 05:31:08;;;;;;;7.07;4.27;;;;;;;14.53;100.00;96407.41;5043537;28;20033;-75
2021/06/25 05:33:33;;;;;;;6.93;4.63;;;;;;;14.59;100.00;96404.84;5043455;28;20021;-75
2021/06/25 05:35:59;;;;;;;5.33;3.67;;;;;;;14.75;100.00;96410.97;5029762;28;20175;-74
2021/06/25 05:38:25;;;;;;;5.97;2.80;;;;;;;14.68;100.00;96410.06;5032736;28;20028;-75
2021/06/25 05:40:51;;;;;;;4.20;3.00;;;;;;;14.80;100.00;96411.28;5051563;28;20664;-75
2021/06/25 05:43:17;;;;;;;4.93;2.93;;;;;;;14.79;100.00;96410.44;5044618;28;20604;-75
2021/06/25 05:45:43;;;;;;;4.53;3.13;;;;;;;14.87;100.00;96401.59;5043565;28;20025;-75
2021/06/25 05:48:09;;;;;;;4.40;3.07;;;;;;;14.87;100.00;96403.44;5045721;28;20050;-75
2021/06/25 05:50:37;;;;;;;4.97;3.33;;;;;;;15.00;100.00;96416.84;5029478;28;20099;-75
2021/06/25 05:53:03;;;;;;;4.68;3.25;;;;;;;14.99;100.00;96410.75;5047793;28;20021;-75
2021/06/25 05:55:29;;;;;;;4.47;2.70;;;;;;;15.08;100.00;96412.28;5046879;28;20116;-76
2021/06/25 05:57:55;;;;;;;5.10;3.20;;;;;;;14.93;100.00;96411.47;5046969;28;20482;-75
2021/06/25 06:00:21;;;;;;;4.97;3.05;;;;;;;14.69;100.00;96415.19;5048276;28;20034;-75
2021/06/25 06:02:47;;;;;;;5.78;3.33;;;;;;;14.81;100.00;96416.38;5045591;28;20031;-75
2021/06/25 06:05:13;;;;;;;4.50;3.22;;;;;;;15.01;100.00;96421.94;5048386;28;20032;-75
2021/06/25 06:07:39;;;;;;;4.67;2.93;;;;;;;15.02;100.00;96423.63;5048046;28;20025;-74
2021/06/25 06:10:06;;;;;;;6.88;2.80;;;;;;;14.99;100.00;96428.44;5047475;28;20066;-75
2021/06/25 06:12:32;;;;;;;4.38;2.25;;;;;;;15.11;100.00;96428.81;5039877;28;20028;-75
2021/06/25 06:14:58;;;;;;;4.60;2.80;;;;;;;14.99;100.00;96423.13;5048445;28;20037;-75
2021/06/25 06:17:24;;;;;;;3.95;2.53;;;;;;;15.02;100.00;96428.91;5048326;28;20035;-75
2021/06/25 06:19:53;;;;;;;4.95;2.58;;;;;;;14.99;100.00;96425.78;5040208;28;20029;-75
2021/06/25 06:35:55;;;;;;;4.82;2.42;;;;;;;15.12;100.00;96438.41;5045720;28;20448;-75
2021/06/25 06:38:20;;;;;;;3.80;2.15;;;;;;;15.12;100.00;96441.88;5046746;28;20763;-75
2021/06/25 06:40:46;;;;;;;3.30;2.13;;;;;;;15.14;100.00;96437.22;5046374;28;20029;-75
2021/06/25 06:43:12;;;;;;;2.17;1.50;;;;;;;15.12;100.00;96443.69;5047700;28;20063;-75
2021/06/25 06:45:38;;;;;;;3.13;1.85;;;;;;;15.20;100.00;96448.91;5047491;28;20116;-75
2021/06/25 06:48:04;;;;;;;4.13;1.77;;;;;;;15.00;100.00;96448.63;5045721;28;20025;-75
2021/06/25 06:50:31;;;;;;;2.13;1.20;;;;;;;14.91;100.00;96441.78;5043459;28;20522;-76
2021/06/25 06:52:56;;;;;;;4.23;1.13;;;;;;;14.83;100.00;96448.78;5046697;28;20033;-75
2021/06/25 06:55:23;;;;;;;2.00;1.40;;;;;;;14.98;100.00;96447.97;5047694;28;20032;-75
2021/06/25 06:57:49;;;;;;;2.10;1.20;;;;;;;15.08;100.00;96440.59;5046739;28;20024;-77
2021/06/25 07:00:16;;;;;;;1.60;1.13;;;;;;;14.99;100.00;96446.97;5040753;28;20039;-75
2021/06/25 07:02:43;;;;;;;2.13;1.10;;;;;;;15.02;100.00;96452.75;5039683;28;20024;-75
2021/06/25 07:05:10;;;;;;;2.60;1.10;;;;;;;15.14;100.00;96449.66;5046770;28;20033;-75
2021/06/25 07:07:36;;;;;;;2.22;1.35;;;;;;;15.08;100.00;96444.06;5045345;28;20017;-75
2021/06/25 07:10:05;;;;;;;2.43;1.40;;;;;;;15.31;100.00;96446.63;5038802;28;20055;-75
2021/06/25 07:12:31;;;;;;;1.83;1.37;;;;;;;15.32;100.00;96447.44;5044860;28;20499;-76
2021/06/25 07:14:57;;;;;;;2.63;1.55;;;;;;;15.36;100.00;96447.88;5045485;28;20048;-76
2021/06/25 07:17:22;;;;;;;3.33;1.42;;;;;;;15.32;100.00;96440.34;5045290;28;20400;-75
2021/06/25 07:19:49;;;;;;;1.80;1.20;;;;;;;15.36;100.00;96447.88;5051438;28;20032;-75
2021/06/25 07:22:15;;;;;;;3.13;1.83;;;;;;;15.32;100.00;96448.28;5046293;28;20021;-76
2021/06/25 07:24:41;;;;;;;3.08;1.50;;;;;;;15.63;100.00;96452.53;5047193;28;20029;-76
2021/06/25 07:27:08;;;;;;;2.50;1.60;;;;;;;15.73;100.00;96449.63;5045465;28;20163;-75
2021/06/25 07:29:34;;;;;;;1.95;1.35;;;;;;;15.85;100.00;96442.00;5046150;28;20033;-75
2021/06/25 07:31:59;;;;;;;5.05;1.58;;;;;;;15.98;100.00;96450.09;5048474;28;20366;-76
2021/06/25 07:34:25;;;;;;;3.85;1.40;;;;;;;15.88;100.00;96446.94;5046508;28;20029;-75
2021/06/25 07:36:51;;;;;;;5.57;1.52;;;;;;;16.03;100.00;96455.69;5045498;28;20020;-75
2021/06/25 07:39:17;;;;;;;3.85;1.42;;;;;;;15.79;100.00;96455.00;5047435;28;20550;-75
2021/06/25 07:41:43;;;;;;;3.22;1.60;;;;;;;15.63;100.00;96455.19;5028781;28;20589;-75
2021/06/25 07:44:09;;;;;;;1.88;1.17;;;;;;;15.79;100.00;96449.72;5046684;28;20123;-75
2021/06/25 07:46:35;;;;;;;2.95;1.40;;;;;;;15.86;100.00;96448.94;5046007;28;20017;-76
2021/06/25 07:49:00;;;;;;;2.80;1.55;;;;;;;15.90;100.00;96447.59;5045509;28;20702;-76
2021/06/25 07:51:26;;;;;;;2.03;1.38;;;;;;;15.71;100.00;96452.44;5045920;28;20452;-75
2021/06/25 07:53:53;;;;;;;5.88;3.65;;;;;;;15.74;100.00;96446.78;5045585;28;20041;-75
2021/06/25 07:56:19;;;;;;;2.90;1.55;;;;;;;15.88;100.00;96444.28;5045384;28;20025;-76
2021/06/25 07:58:45;;;;;;;2.72;1.13;;;;;;;15.91;100.00;96447.38;5045416;28;20041;-76
2021/06/25 08:01:11;;;;;;;2.58;1.30;;;;;;;15.95;100.00;96447.81;5046320;28;20056;-75
2021/06/25 08:03:36;;;;;;;2.35;1.50;;;;;;;15.72;100.00;96448.78;5046897;28;20840;-76
2021/06/25 08:06:02;;;;;;;3.58;1.52;;;;;;;15.85;100.00;96442.81;5042267;28;20478;-75
2021/06/25 08:08:28;;;;;;;3.28;1.55;;;;;;;15.88;100.00;96441.63;5040681;28;20499;-76
2021/06/25 08:10:54;;;;;;;4.43;1.75;;;;;;;15.99;100.00;96449.09;5039886;28;20025;-76
2021/06/25 08:13:20;;;;;;;2.22;1.40;;;;;;;15.81;100.00;96438.09;5046339;28;20021;-76
2021/06/25 08:15:51;;;;;;;3.45;1.92;;;;;;;15.63;100.00;96444.59;5039319;28;20418;-77
2021/06/25 08:18:18;;;;;;;2.25;1.50;;;;;;;15.66;100.00;96446.91;5048530;28;20036;-76
2021/06/25 08:20:45;;;;;;;1.95;1.27;;;;;;;15.66;100.00;96435.41;5049234;28;20521;-76
2021/06/25 08:23:11;;;;;;;2.08;1.40;;;;;;;15.73;100.00;96450.44;5039146;28;20078;-75
2021/06/25 08:25:37;;;;;;;4.25;2.35;;;;;;;15.63;100.00;96444.59;5040212;28;20389;-76
2021/06/25 08:28:03;;;;;;;2.78;1.63;;;;;;;15.62;100.00;96439.44;5038953;28;20110;-76
2021/06/25 08:30:29;;;;;;;2.00;1.10;;;;;;;15.56;100.00;96435.75;5033472;28;20032;-76
2021/06/25 08:32:55;;;;;;;3.67;1.90;;;;;;;15.78;100.00;96437.44;5046800;28;20675;-76
2021/06/25 08:35:22;;;;;;;3.50;2.00;;;;;;;15.98;100.00;96437.66;5028555;28;20079;-76
2021/06/25 08:37:49;;;;;;;3.22;1.63;;;;;;;16.20;100.00;96437.69;5039292;28;20057;-75
2021/06/25 08:40:18;;;;;;;3.97;2.10;;;;;;;16.16;100.00;96431.09;5044344;28;20082;-75
2021/06/25 08:42:44;;;;;;;3.42;2.40;;;;;;;16.64;100.00;96437.47;5044530;28;20025;-75
2021/06/25 08:45:11;;;;;;;3.08;2.20;;;;;;;16.79;100.00;96437.38;5027814;28;20024;-75
2021/06/25 08:47:49;;;;;;;4.43;2.30;;;;;;;16.84;100.00;96429.69;5049847;28;20032;-76
2021/06/25 08:50:17;;;;;;;6.95;5.07;;;;;;;17.03;100.00;96430.81;5042664;28;20468;-75
2021/06/25 08:52:45;;;;;;;4.82;3.17;;;;;;;17.44;100.00;96430.84;5042470;28;20029;-76
2021/06/25 08:55:12;;;;;;;4.10;2.47;;;;;;;17.31;100.00;96422.00;5035963;28;20041;-75
2021/06/25 08:57:37;;;;;;;4.47;3.00;;;;;;;17.26;99.58;96437.69;5044271;28;20021;-75
2021/06/25 09:00:05;;;;;;;4.90;2.53;;;;;;;17.87;100.00;96427.13;5044412;28;20515;-75
2021/06/25 09:02:36;;;;;;;3.17;2.28;;;;;;;18.07;96.90;96425.34;5045779;28;20100;-75
2021/06/25 09:05:07;;;;;;;3.95;2.60;;;;;;;17.72;97.31;96426.47;5044463;28;20044;-75
2021/06/25 09:07:44;;;;;;;5.53;3.10;;;;;;;17.81;97.05;96428.78;5036296;28;20044;-75
2021/06/25 09:10:11;;;;;;;4.07;2.67;;;;;;;17.71;96.82;96438.13;5041250;28;20028;-75
2021/06/25 09:12:37;;;;;;;4.75;2.83;;;;;;;17.03;97.79;96446.75;5044714;28;20064;-75
2021/06/25 09:15:13;;;;;;;4.50;2.70;;;;;;;16.95;99.00;96438.94;5043434;28;20033;-75
2021/06/25 09:18:02;;;;;;;5.43;3.00;;;;;;;16.86;100.00;96446.22;5039805;28;20039;-75
2021/06/25 09:20:41;;;;;;;3.13;2.10;;;;;;;16.60;100.00;96448.63;5045346;28;20029;-75
2021/06/25 09:23:10;;;;;;;3.65;2.40;;;;;;;16.62;100.00;96450.09;5041643;28;20033;-76
2021/06/25 09:26:06;;;;;;;5.70;3.13;;;;;;;16.41;100.00;96448.28;5043552;28;20466;-75
2021/06/25 09:28:34;;;;;;;8.20;5.85;;;;;;;16.57;100.00;96449.06;5039638;28;20039;-75
2021/06/25 09:31:00;;;;;;;5.53;3.63;;;;;;;16.88;100.00;96443.41;5043598;28;20025;-75
2021/06/25 09:33:26;;;;;;;3.78;2.72;;;;;;;16.61;100.00;96453.78;5045030;28;20036;-75
2021/06/25 09:35:56;;;;;;;4.10;2.83;;;;;;;16.95;100.00;96455.69;5045022;28;20037;-75
2021/06/25 09:38:39;;;;;;;3.97;2.85;;;;;;;17.27;100.00;96447.31;5041996;28;20516;-75
2021/06/25 09:41:21;;;;;;;5.15;3.03;;;;;;;17.54;98.29;96450.91;5044183;28;20033;-75
2021/06/25 09:44:08;;;;;;;3.83;2.40;;;;;;;18.17;94.87;96445.44;5044619;28;20029;-74
2021/06/25 09:46:44;;;;;;;3.60;2.67;;;;;;;17.93;94.60;96439.66;5044814;28;20029;-75
2021/06/25 09:49:15;;;;;;;4.32;2.95;;;;;;;18.31;94.30;96445.28;5036865;28;20071;-75
2021/06/25 09:51:54;;;;;;;4.90;3.15;;;;;;;18.80;90.77;96446.75;5043455;28;20390;-75
2021/06/25 09:54:20;;;;;;;6.25;3.45;;;;;;;19.97;89.68;96439.69;5036395;28;20033;-74
2021/06/25 10:02:18;;;;;;;3.05;2.17;;;;;;;19.20;86.07;96446.72;5045373;28;20017;-74
2021/06/25 10:05:14;;;;;;;2.03;1.70;;;;;;;19.46;87.28;96437.03;5043872;28;20510;-75
2021/06/25 10:07:40;;;;;;;2.67;2.10;;;;;;;19.40;88.45;96446.66;5035596;28;20041;-75
2021/06/25 10:10:12;;;;;;;2.95;2.05;;;;;;;19.36;87.01;96448.13;5043378;28;20056;-75
2021/06/25 10:12:41;;;;;;;4.40;2.00;;;;;;;19.27;86.42;96442.19;5060701;28;20387;-75
2021/06/25 10:15:07;;;;;;;3.03;2.08;;;;;;;19.35;86.84;96441.16;5042246;28;20059;-75
2021/06/25 10:17:36;;;;;;;3.55;2.45;;;;;;;18.99;89.12;96441.63;5036280;28;20032;-75
2021/06/25 10:20:09;;;;;;;3.88;2.17;;;;;;;18.95;87.70;96435.91;5043031;28;20029;-75
2021/06/25 10:22:36;;;;;;;4.18;1.80;;;;;;;19.08;88.60;96441.22;5044927;28;20075;-75
2021/06/25 10:25:04;;;;;;;3.33;1.90;;;;;;;19.43;88.33;96438.25;5043192;28;20040;-74
2021/06/25 10:27:31;;;;;;;2.97;1.88;;;;;;;20.00;84.38;96439.28;5041854;28;20036;-75
2021/06/25 10:29:58;;;;;;;3.15;2.20;;;;;;;19.79;82.76;96447.59;5026358;28;20441;-75
2021/06/25 10:32:24;;;;;;;3.10;1.88;;;;;;;20.59;81.93;96442.66;5066872;28;20029;-75
2021/06/25 10:34:50;;;;;;;4.40;2.47;;;;;;;20.94;81.88;96436.78;5044444;28;20036;-75
2021/06/25 10:37:23;;;;;;;3.08;2.05;;;;;;;21.89;76.42;96439.09;5047103;28;20036;-75
2021/06/25 10:39:50;;;;;;;4.93;3.42;;;;;;;20.85;78.85;96449.59;5050252;28;20028;-75
2021/06/25 10:42:16;;;;;;;5.28;2.47;;;;;;;19.04;83.99;96458.63;5047957;28;20689;-75
2021/06/25 10:44:43;;;;;;;5.95;3.60;;;;;;;18.52;89.30;96454.94;5047016;28;20024;-75
2021/06/25 10:47:19;;;;;;;3.50;2.13;;;;;;;18.13;89.52;96472.47;5045536;28;20030;-75
2021/06/25 10:50:05;;;;;;;3.97;2.15;;;;;;;17.43;92.74;96462.94;5045238;28;20088;-76
2021/06/25 10:52:34;;;;;;;3.85;2.28;;;;;;;17.02;95.19;96462.91;5047775;28;20083;-76
2021/06/25 10:55:01;;;;;;;3.88;2.38;;;;;;;16.88;95.94;96469.94;5047480;28;20028;-75
2021/06/25 10:57:28;;;;;;;3.97;2.80;;;;;;;16.88;97.73;96475.28;5045776;28;20063;-76
2021/06/25 10:59:53;;;;;;;5.60;2.85;;;;;;;16.83;97.21;96467.03;5046251;28;20556;-75
2021/06/25 11:02:44;;;;;;;7.25;4.78;;;;;;;17.10;96.57;96471.56;5048367;28;20036;-77
2021/06/25 11:05:25;;;;;;;10.35;6.88;;;;;;;17.22;96.43;96465.69;5039619;28;20032;-76
2021/06/25 11:07:55;;;;;;;3.55;2.50;;;;;;;17.53;92.47;96468.72;5046655;28;20123;-75
2021/06/25 11:10:31;;;;;;;3.83;2.72;;;;;;;17.50;95.16;96469.09;5047215;28;20437;-76
2021/06/25 11:13:12;;;;;;;12.13;5.38;;;;;;;17.42;95.25;96471.94;5047712;28;20436;-76
2021/06/25 11:15:43;;;;;;;6.32;4.63;;;;;;;17.49;94.64;96470.13;5046997;28;20033;-76
2021/06/25 11:18:18;;;;;;;8.52;6.75;;;;;;;17.52;93.41;96472.41;5047205;28;20032;-76
2021/06/25 11:20:52;;;;;;;6.15;4.57;;;;;;;17.48;95.85;96473.81;5047255;28;20041;-76
2021/06/25 11:23:23;;;;;;;;;;;;;;;17.73;94.17;96479.44;5047082;28;20087;-77
2021/06/25 11:25:53;;;;;;;7.75;5.28;;;;;;;18.14;92.61;96471.47;5048002;28;19913;-76
2021/06/25 11:28:25;;;;;;;22.40;14.05;;;;;;;18.29;90.54;96478.44;5046745;28;20158;-76
2021/06/25 11:30:50;;;;;;;50.33;45.25;;;;;;;18.84;90.19;96477.28;5047346;28;20068;-76
2021/06/25 11:33:32;;;;;;;33.25;29.80;;;;;;;19.16;87.92;96474.81;5046397;28;20056;-76
2021/06/25 11:36:13;;;;;;;31.63;28.70;;;;;;;19.70;86.28;96478.22;5047455;28;20058;-76
2021/06/25 11:39:04;;;;;;;8.13;6.97;;;;;;;19.82;88.00;96481.03;5045928;28;20036;-77
2021/06/25 11:41:36;;;;;;;7.65;5.38;;;;;;;20.24;85.73;96474.28;5040684;28;20102;-76
2021/06/25 11:44:05;;;;;;;7.45;5.88;;;;;;;20.71;84.13;96466.78;5046688;28;20041;-77
2021/06/25 11:46:32;;;;;;;5.97;4.75;;;;;;;21.29;77.48;96461.13;5046176;28;20052;-76
2021/06/25 11:49:02;;;;;;;5.40;3.72;;;;;;;22.63;73.52;96460.34;5044513;28;20032;-76
2021/06/25 11:51:40;;;;;;;5.38;4.05;;;;;;;22.78;76.39;96458.88;5046769;28;20032;-75
2021/06/25 11:54:08;;;;;;;5.30;3.83;;;;;;;23.06;72.27;96458.22;5031097;28;20105;-76